createdAt,value
2019-01-08T00:01:33.941Z,32.50
2019-01-08T00:04:23.136Z,24.95
2019-01-08T00:07:12.078Z,26.65
2019-01-08T00:10:01.176Z,26.97
2019-01-08T00:12:50.184Z,28.02
2019-01-08T00:15:39.116Z,21.85
2019-01-08T00:18:27.765Z,26.02
2019-01-08T00:21:17.014Z,32.23
2019-01-08T00:24:05.792Z,35.65
2019-01-08T00:26:54.446Z,23.87
2019-01-08T00:29:43.196Z,26.95
2019-01-08T00:32:32.613Z,27.35
2019-01-08T00:35:21.429Z,23.90
2019-01-08T00:38:10.976Z,18.95
2019-01-08T00:40:59.928Z,24.63
2019-01-08T00:43:49.182Z,27.10
2019-01-08T00:46:38.263Z,26.82
2019-01-08T00:49:26.644Z,33.28
2019-01-08T00:52:15.673Z,21.95
2019-01-08T00:55:04.598Z,28.50
2019-01-08T00:57:53.368Z,22.10
2019-01-08T01:00:42.061Z,25.27
2019-01-08T01:03:31.302Z,30.88
2019-01-08T01:06:20.907Z,27.75
2019-01-08T01:09:10.170Z,24.87
2019-01-08T01:11:58.999Z,20.72
2019-01-08T01:14:47.874Z,24.80
2019-01-08T01:17:36.950Z,19.92
2019-01-08T01:20:25.740Z,38.42
2019-01-08T01:23:14.450Z,32.53
2019-01-08T01:26:03.564Z,29.25
2019-01-08T01:28:59.683Z,34.63
2019-01-08T01:31:43.298Z,26.37
2019-01-08T01:34:32.372Z,28.75
2019-01-08T01:37:21.343Z,28.00
2019-01-08T01:40:10.336Z,26.15
2019-01-08T01:42:59.387Z,25.57
2019-01-08T01:45:48.277Z,41.55
2019-01-08T01:48:36.886Z,20.52
2019-01-08T01:51:25.798Z,36.13
2019-01-08T01:54:15.637Z,30.77
2019-01-08T01:57:05.093Z,27.17
2019-01-08T01:59:54.082Z,38.45
2019-01-08T02:02:43.161Z,29.27
2019-01-08T02:05:31.992Z,31.17
2019-01-08T02:08:20.239Z,30.75
2019-01-08T02:11:08.938Z,25.05
2019-01-08T02:13:57.965Z,20.85
2019-01-08T02:16:46.328Z,29.70
2019-01-08T02:19:34.769Z,26.45
2019-01-08T02:22:24.099Z,21.37
2019-01-08T02:25:12.475Z,28.20
2019-01-08T02:28:01.221Z,16.10
2019-01-08T02:30:49.605Z,20.97
2019-01-08T02:33:38.025Z,23.42
2019-01-08T02:36:27.302Z,25.65
2019-01-08T02:39:16.553Z,24.43
2019-01-08T02:42:05.593Z,17.95
2019-01-08T02:44:54.441Z,22.00
2019-01-08T02:47:42.766Z,10.98
2019-01-08T02:50:31.616Z,22.22
2019-01-08T02:53:20.640Z,13.78
2019-01-08T02:56:09.683Z,19.98
2019-01-08T02:58:58.075Z,14.87
2019-01-08T03:01:47.120Z,18.20
2019-01-08T03:04:35.532Z,13.45
2019-01-08T03:07:24.788Z,34.98
2019-01-08T03:10:13.348Z,24.15
2019-01-08T03:13:02.202Z,26.10
2019-01-08T03:15:50.936Z,23.77
2019-01-08T03:18:39.855Z,17.65
2019-01-08T03:21:28.969Z,29.95
2019-01-08T03:24:18.185Z,17.90
2019-01-08T03:27:07.260Z,22.73
2019-01-08T03:29:56.224Z,25.20
2019-01-08T03:32:45.310Z,27.50
2019-01-08T03:35:34.009Z,23.18
2019-01-08T03:38:23.022Z,29.65
2019-01-08T03:41:11.875Z,26.48
2019-01-08T03:44:00.151Z,26.80
2019-01-08T03:46:48.425Z,25.48
2019-01-08T03:49:37.490Z,22.40
2019-01-08T03:52:25.912Z,27.65
2019-01-08T03:55:14.798Z,35.33
2019-01-08T03:58:03.531Z,20.55
2019-01-08T04:00:52.526Z,27.80
2019-01-08T04:03:41.575Z,20.30
2019-01-08T04:06:30.772Z,25.68
2019-01-08T04:09:19.456Z,24.40
2019-01-08T04:12:08.443Z,32.70
2019-01-08T04:14:57.007Z,21.85
2019-01-08T04:17:46.278Z,28.92
2019-01-08T04:20:35.144Z,32.08
2019-01-08T04:23:23.533Z,23.47
2019-01-08T04:26:12.177Z,26.93
2019-01-08T04:29:01.094Z,29.23
2019-01-08T04:31:50.355Z,29.57
2019-01-08T04:34:39.470Z,23.07
2019-01-08T04:37:28.678Z,20.82
2019-01-08T04:40:16.962Z,19.27
2019-01-08T04:43:06.048Z,27.35
2019-01-08T04:45:55.090Z,24.60
2019-01-08T04:48:44.018Z,22.15
2019-01-08T04:51:33.217Z,27.35
2019-01-08T04:54:22.325Z,26.17
2019-01-08T04:57:10.577Z,22.05
2019-01-08T04:59:59.328Z,28.67
2019-01-08T05:02:47.756Z,29.98
2019-01-08T05:05:36.482Z,32.17
2019-01-08T05:08:25.564Z,29.23
2019-01-08T05:11:14.729Z,17.57
2019-01-08T05:14:03.587Z,19.60
2019-01-08T05:16:52.684Z,21.65
2019-01-08T05:19:42.047Z,21.97
2019-01-08T05:22:31.509Z,20.00
2019-01-08T05:25:20.596Z,18.37
2019-01-08T05:28:08.919Z,26.62
2019-01-08T05:30:57.426Z,24.20
2019-01-08T05:33:46.786Z,20.77
2019-01-08T05:36:36.252Z,28.10
2019-01-08T05:39:25.196Z,21.70
2019-01-08T05:42:13.831Z,23.00
2019-01-08T05:45:02.716Z,30.57
2019-01-08T05:47:51.205Z,24.87
2019-01-08T05:50:40.376Z,20.45
2019-01-08T05:53:29.558Z,26.25
2019-01-08T05:56:18.476Z,31.97
2019-01-08T05:59:07.429Z,34.55
2019-01-08T06:01:56.012Z,29.77
2019-01-08T06:04:45.254Z,25.75
2019-01-08T06:07:34.039Z,35.28
2019-01-08T06:10:22.794Z,30.12
2019-01-08T06:13:11.371Z,38.98
2019-01-08T06:16:00.299Z,40.98
2019-01-08T06:18:49.422Z,36.25
2019-01-08T06:21:38.480Z,32.40
2019-01-08T06:24:27.358Z,30.48
2019-01-08T06:27:15.712Z,33.15
2019-01-08T06:30:05.232Z,47.20
2019-01-08T06:32:53.988Z,41.83
2019-01-08T06:35:42.382Z,33.28
2019-01-08T06:38:31.512Z,25.92
2019-01-08T06:41:20.286Z,43.20
2019-01-08T06:44:09.502Z,39.55
2019-01-08T06:46:58.368Z,36.95
2019-01-08T06:49:47.145Z,45.73
2019-01-08T06:52:35.749Z,36.85
2019-01-08T06:55:24.775Z,46.42
2019-01-08T06:58:13.306Z,41.33
2019-01-08T07:01:02.263Z,38.15
2019-01-08T07:03:50.977Z,32.20
2019-01-08T07:06:39.758Z,29.52
2019-01-08T07:09:28.467Z,28.60
2019-01-08T07:12:16.732Z,21.33
2019-01-08T07:15:05.981Z,25.17
2019-01-08T07:17:55.223Z,29.95
2019-01-08T07:20:44.329Z,28.42
2019-01-08T07:23:32.634Z,25.75
2019-01-08T07:26:21.359Z,24.67
2019-01-08T07:29:10.437Z,25.90
2019-01-08T07:31:59.504Z,27.87
2019-01-08T07:34:48.924Z,19.37
2019-01-08T07:37:37.843Z,24.52
2019-01-08T07:40:26.802Z,25.08
2019-01-08T07:43:15.744Z,20.17
2019-01-08T07:46:04.946Z,24.52
2019-01-08T07:48:53.351Z,23.40
2019-01-08T07:51:42.160Z,22.93
2019-01-08T07:54:31.223Z,19.48
2019-01-08T07:57:20.246Z,13.05
2019-01-08T08:00:10.038Z,20.80
2019-01-08T08:02:59.030Z,21.85
2019-01-08T08:05:47.753Z,24.70
2019-01-08T08:08:36.358Z,22.02
2019-01-08T08:11:25.185Z,26.70
2019-01-08T08:14:14.470Z,23.35
2019-01-08T08:17:05.505Z,30.72
2019-01-08T08:19:54.215Z,36.05
2019-01-08T08:22:43.001Z,32.78
2019-01-08T08:25:31.390Z,35.48
2019-01-08T08:28:19.987Z,32.28
2019-01-08T08:31:08.996Z,56.23
2019-01-08T08:33:57.924Z,30.00
2019-01-08T08:36:47.116Z,38.88
2019-01-08T08:39:35.924Z,26.57
2019-01-08T08:42:24.729Z,23.90
2019-01-08T08:45:13.351Z,26.65
2019-01-08T08:48:02.401Z,35.00
2019-01-08T08:50:51.292Z,39.73
2019-01-08T08:53:40.274Z,23.92
2019-01-08T08:56:28.501Z,31.15
2019-01-08T08:59:27.971Z,22.65
2019-01-08T09:02:17.398Z,33.15
2019-01-08T09:05:06.804Z,27.42
2019-01-08T09:07:55.895Z,32.95
2019-01-08T09:10:44.620Z,24.07
2019-01-08T09:13:33.965Z,33.23
2019-01-08T09:16:23.055Z,28.27
2019-01-08T09:19:11.681Z,34.75
2019-01-08T09:22:00.454Z,35.55
2019-01-08T09:24:49.156Z,34.70
2019-01-08T09:27:38.113Z,33.28
2019-01-08T09:30:26.579Z,35.85
2019-01-08T09:33:15.560Z,29.98
2019-01-08T09:36:04.502Z,28.17
2019-01-08T09:38:53.339Z,32.20
2019-01-08T09:41:42.672Z,35.45
2019-01-08T09:44:31.522Z,38.40
2019-01-08T09:47:20.292Z,33.95
2019-01-08T09:50:09.557Z,34.73
2019-01-08T09:52:58.492Z,30.90
2019-01-08T09:55:47.360Z,23.20
2019-01-08T09:58:36.647Z,33.95
2019-01-08T10:01:25.605Z,34.53
2019-01-08T10:04:14.822Z,35.63
2019-01-08T10:07:03.594Z,24.50
2019-01-08T10:09:52.461Z,30.90
2019-01-08T10:12:41.383Z,33.45
2019-01-08T10:15:29.702Z,21.07
2019-01-08T10:18:18.594Z,43.00
2019-01-08T10:21:07.665Z,40.92
2019-01-08T10:23:56.871Z,29.12
2019-01-08T10:26:45.995Z,29.98
2019-01-08T10:29:35.018Z,22.62
2019-01-08T10:32:23.565Z,29.18
2019-01-08T10:35:12.588Z,33.13
2019-01-08T10:38:01.042Z,24.50
2019-01-08T10:40:49.451Z,20.55
2019-01-08T10:43:38.135Z,30.57
2019-01-08T10:46:26.441Z,32.80
2019-01-08T10:49:14.886Z,30.12
2019-01-08T10:52:03.283Z,31.25
2019-01-08T10:54:51.914Z,23.35
2019-01-08T10:57:40.981Z,21.50
2019-01-08T11:00:29.526Z,20.45
2019-01-08T11:03:17.904Z,28.15
2019-01-08T11:06:06.545Z,23.18
2019-01-08T11:08:55.757Z,19.00
2019-01-08T11:11:44.410Z,22.25
2019-01-08T11:14:32.783Z,26.82
2019-01-08T11:17:22.002Z,25.23
2019-01-08T11:20:11.072Z,29.40
2019-01-08T11:23:00.098Z,41.55
2019-01-08T11:25:49.072Z,30.00
2019-01-08T11:28:38.162Z,27.55
2019-01-08T11:31:27.228Z,24.07
2019-01-08T11:34:16.423Z,39.25
2019-01-08T11:37:05.507Z,33.67
2019-01-08T11:39:54.784Z,29.87
2019-01-08T11:42:43.941Z,28.32
2019-01-08T11:45:33.041Z,30.62
2019-01-08T11:48:21.870Z,25.05
2019-01-08T11:51:10.969Z,44.42
2019-01-08T11:53:59.595Z,27.60
2019-01-08T11:56:49.470Z,34.55
2019-01-08T11:59:40.307Z,37.45
2019-01-08T12:02:29.295Z,72.37
2019-01-08T12:05:17.958Z,25.70
2019-01-08T12:08:06.957Z,31.73
2019-01-08T12:10:55.468Z,25.15
2019-01-08T12:13:44.076Z,32.67
2019-01-08T12:16:33.016Z,28.17
2019-01-08T12:19:21.613Z,23.98
2019-01-08T12:22:10.295Z,36.58
2019-01-08T12:24:59.449Z,22.50
2019-01-08T12:27:48.186Z,22.35
2019-01-08T12:30:36.609Z,33.25
2019-01-08T12:33:25.396Z,23.70
2019-01-08T12:36:13.973Z,25.57
2019-01-08T12:39:03.290Z,28.95
2019-01-08T12:41:52.212Z,18.30
2019-01-08T12:44:40.585Z,16.32
2019-01-08T12:47:28.977Z,19.60
2019-01-08T12:50:17.821Z,18.73
2019-01-08T12:53:06.939Z,26.00
2019-01-08T12:55:55.870Z,30.00
2019-01-08T12:58:44.758Z,29.48
2019-01-08T13:01:33.324Z,39.18
2019-01-08T13:04:21.815Z,45.48
2019-01-08T13:07:10.850Z,35.50
2019-01-08T13:09:59.193Z,33.20
2019-01-08T13:12:48.494Z,45.23
2019-01-08T13:15:36.750Z,30.57
2019-01-08T13:18:25.634Z,40.95
2019-01-08T13:21:14.715Z,46.83
2019-01-08T13:24:05.814Z,33.35
2019-01-08T13:26:54.513Z,44.23
2019-01-08T13:29:43.796Z,32.73
2019-01-08T13:32:32.477Z,41.02
2019-01-08T13:35:21.513Z,39.30
2019-01-08T13:38:10.545Z,34.83
2019-01-08T13:40:59.111Z,26.77
2019-01-08T13:43:48.413Z,50.75
2019-01-08T13:46:37.808Z,35.00
2019-01-08T13:49:26.666Z,43.78
2019-01-08T13:52:15.124Z,34.90
2019-01-08T13:55:04.192Z,42.30
2019-01-08T13:57:53.299Z,40.25
2019-01-08T14:00:42.252Z,31.70
2019-01-08T14:03:30.591Z,28.75
2019-01-08T14:06:19.534Z,22.73
2019-01-08T14:09:08.754Z,26.62
2019-01-08T14:11:58.114Z,18.45
2019-01-08T14:14:47.370Z,12.47
2019-01-08T14:17:36.632Z,9.13
2019-01-08T14:20:25.479Z,13.05
2019-01-08T14:23:14.377Z,4.58
2019-01-08T14:26:02.927Z,5.67
2019-01-08T14:28:51.462Z,3.83
2019-01-08T14:31:40.303Z,7.50
2019-01-08T14:34:28.876Z,3.22
2019-01-08T14:37:18.023Z,4.62
2019-01-08T14:40:08.057Z,5.10
2019-01-08T14:42:57.136Z,3.08
2019-01-08T14:45:45.734Z,4.97
2019-01-08T14:48:34.748Z,8.68
2019-01-08T14:51:23.181Z,3.12
2019-01-08T14:54:12.122Z,7.67
2019-01-08T14:57:01.011Z,10.28
2019-01-08T14:59:49.993Z,10.08
2019-01-08T15:02:39.136Z,9.73
2019-01-08T15:05:27.453Z,9.90
2019-01-08T15:08:16.925Z,5.20
2019-01-08T15:11:05.605Z,3.72
2019-01-08T15:13:55.054Z,3.70
2019-01-08T15:16:43.798Z,5.65
2019-01-08T15:19:33.032Z,8.10
2019-01-08T15:22:22.052Z,1.65
2019-01-08T15:25:11.200Z,2.75
2019-01-08T15:28:00.374Z,1.42
2019-01-08T15:30:49.377Z,7.83
2019-01-08T15:33:37.596Z,2.37
2019-01-08T15:36:26.866Z,5.20
2019-01-08T15:39:15.907Z,4.00
2019-01-08T15:42:09.643Z,3.50
2019-01-08T15:44:58.504Z,4.67
2019-01-08T15:47:47.752Z,2.20
2019-01-08T15:50:36.537Z,2.62
2019-01-08T15:53:25.524Z,4.22
2019-01-08T15:56:14.606Z,5.80
2019-01-08T15:59:11.508Z,3.40
2019-01-08T16:02:02.159Z,4.25
2019-01-08T16:04:51.235Z,3.30
2019-01-08T16:07:46.558Z,2.55
2019-01-08T16:10:39.250Z,17.45
2019-01-08T16:13:31.440Z,5.45
2019-01-08T16:16:24.293Z,5.83
2019-01-08T16:19:15.480Z,2.83
2019-01-08T16:22:06.907Z,9.40
2019-01-08T16:24:55.633Z,9.28
2019-01-08T16:27:44.027Z,1.80
2019-01-08T16:30:33.290Z,9.25
2019-01-08T16:33:22.082Z,2.83
2019-01-08T16:36:10.826Z,7.33
2019-01-08T16:39:07.427Z,5.35
2019-01-08T16:41:59.087Z,4.50
2019-01-08T16:44:46.412Z,9.88
2019-01-08T16:47:35.741Z,7.12
2019-01-08T16:50:25.780Z,4.53
2019-01-08T16:53:15.720Z,7.15
2019-01-08T16:56:10.778Z,5.10
2019-01-08T16:59:01.398Z,2.27
2019-01-08T17:01:50.520Z,2.60
2019-01-08T17:04:41.538Z,4.72
2019-01-08T17:07:33.973Z,4.40
2019-01-08T17:10:23.080Z,1.67
2019-01-08T17:13:14.999Z,2.77
2019-01-08T17:16:06.899Z,6.17
2019-01-08T17:18:56.287Z,5.97
2019-01-08T17:21:46.754Z,7.70
2019-01-08T17:24:35.570Z,1.62
2019-01-08T17:27:27.370Z,3.98
2019-01-08T17:30:16.632Z,3.52
2019-01-08T17:33:05.767Z,3.35
2019-01-08T17:35:54.603Z,3.70
2019-01-08T17:38:43.609Z,3.58
2019-01-08T17:41:32.161Z,4.75
2019-01-08T17:44:20.532Z,4.47
2019-01-08T17:47:11.861Z,5.28
2019-01-08T17:50:00.564Z,4.42
2019-01-08T17:52:49.475Z,2.00
2019-01-08T17:55:38.308Z,5.55
2019-01-08T17:58:39.699Z,3.83
2019-01-08T18:01:28.417Z,4.17
2019-01-08T18:04:16.793Z,3.00
2019-01-08T18:07:05.894Z,11.50
2019-01-08T18:09:54.726Z,4.00
2019-01-08T18:12:43.459Z,2.45
2019-01-08T18:15:31.927Z,2.83
2019-01-08T18:18:21.040Z,1.55
2019-01-08T18:21:10.363Z,4.10
2019-01-08T18:23:59.558Z,1.85
2019-01-08T18:26:50.818Z,2.92
2019-01-08T18:29:39.361Z,2.85
2019-01-08T18:32:28.342Z,0.80
2019-01-08T18:35:17.538Z,1.52
2019-01-08T18:38:06.305Z,3.17
2019-01-08T18:40:55.036Z,2.45
2019-01-08T18:43:44.045Z,1.45
2019-01-08T18:46:32.902Z,5.20
2019-01-08T18:49:23.061Z,1.25
2019-01-08T18:52:12.124Z,1.98
2019-01-08T18:55:00.904Z,2.20
2019-01-08T18:57:50.045Z,2.00
2019-01-08T19:00:39.036Z,1.20
2019-01-08T19:03:28.053Z,1.27
2019-01-08T19:06:17.111Z,6.62
2019-01-08T19:09:25.195Z,2.25
2019-01-08T19:12:13.818Z,1.98
2019-01-08T19:15:02.903Z,2.87
2019-01-08T19:17:52.011Z,1.70
2019-01-08T19:20:40.917Z,2.65
2019-01-08T19:23:29.599Z,3.02
2019-01-08T19:26:18.781Z,1.57
2019-01-08T19:29:07.484Z,2.65
2019-01-08T19:31:56.404Z,1.62
2019-01-08T19:34:45.015Z,1.40
2019-01-08T19:37:34.058Z,2.50
2019-01-08T19:40:23.194Z,2.98
2019-01-08T19:43:11.909Z,6.90
2019-01-08T19:46:01.096Z,1.10
2019-01-08T19:48:50.282Z,3.62
2019-01-08T19:51:39.362Z,3.25
2019-01-08T19:54:27.930Z,2.83
2019-01-08T19:57:16.987Z,2.80
2019-01-08T20:00:09.813Z,4.08
2019-01-08T20:02:59.418Z,2.67
2019-01-08T20:05:47.693Z,2.75
2019-01-08T20:08:36.873Z,5.05
2019-01-08T20:11:25.883Z,3.37
2019-01-08T20:14:14.813Z,3.80
2019-01-08T20:17:03.229Z,2.08
2019-01-08T20:19:52.287Z,1.92
2019-01-08T20:22:40.882Z,2.10
2019-01-08T20:25:29.978Z,11.20
2019-01-08T20:28:18.807Z,3.70
2019-01-08T20:31:07.981Z,3.77
2019-01-08T20:33:56.962Z,1.60
2019-01-08T20:36:46.030Z,1.35
2019-01-08T20:39:34.783Z,3.08
2019-01-08T20:42:23.838Z,2.90
2019-01-08T20:45:12.898Z,3.75
2019-01-08T20:48:02.162Z,5.60
2019-01-08T20:50:51.212Z,2.27
2019-01-08T20:53:40.105Z,5.72
2019-01-08T20:56:28.895Z,3.22
2019-01-08T20:59:18.062Z,2.58
2019-01-08T21:02:07.179Z,1.17
2019-01-08T21:04:56.231Z,4.10
2019-01-08T21:07:44.778Z,53.23
2019-01-08T21:10:34.086Z,6.33
2019-01-08T21:13:22.860Z,10.20
2019-01-08T21:16:11.449Z,4.30
2019-01-08T21:19:00.255Z,10.58
2019-01-08T21:21:49.479Z,7.00
2019-01-08T21:24:38.671Z,2.25
2019-01-08T21:27:27.576Z,5.05
2019-01-08T21:30:16.710Z,4.17
2019-01-08T21:33:06.127Z,8.08
2019-01-08T21:35:54.589Z,3.90
2019-01-08T21:38:43.769Z,2.05
2019-01-08T21:41:32.446Z,5.80
2019-01-08T21:44:21.473Z,4.60
2019-01-08T21:47:10.056Z,4.40
2019-01-08T21:49:59.537Z,5.30
2019-01-08T21:52:48.173Z,3.08
2019-01-08T21:55:37.069Z,6.00
2019-01-08T21:58:26.051Z,2.37
2019-01-08T22:01:15.109Z,4.37
2019-01-08T22:04:04.335Z,7.60
2019-01-08T22:06:53.449Z,4.53
2019-01-08T22:09:42.395Z,7.58
2019-01-08T22:12:31.149Z,3.30
2019-01-08T22:15:20.065Z,2.62
2019-01-08T22:18:09.132Z,8.43
2019-01-08T22:20:58.179Z,3.17
2019-01-08T22:23:46.926Z,9.15
2019-01-08T22:26:36.121Z,3.02
2019-01-08T22:29:25.172Z,6.90
2019-01-08T22:32:13.558Z,6.12
2019-01-08T22:35:02.930Z,2.10
2019-01-08T22:37:52.450Z,5.25
2019-01-08T22:40:41.118Z,5.62
2019-01-08T22:43:30.136Z,3.72
2019-01-08T22:46:18.763Z,6.85
2019-01-08T22:49:07.712Z,4.60
2019-01-08T22:51:57.798Z,11.95
2019-01-08T22:54:46.277Z,5.40
2019-01-08T22:57:34.631Z,11.60
2019-01-08T23:00:41.131Z,3.87
2019-01-08T23:03:29.956Z,5.53
2019-01-08T23:06:19.283Z,2.55
2019-01-08T23:09:08.772Z,4.22
2019-01-08T23:11:57.641Z,4.30
2019-01-08T23:14:46.177Z,4.80
2019-01-08T23:17:35.204Z,3.90
2019-01-08T23:20:24.302Z,4.50
2019-01-08T23:23:13.368Z,4.70
2019-01-08T23:26:02.361Z,6.22
2019-01-08T23:28:51.396Z,4.62
2019-01-08T23:31:40.458Z,3.92
2019-01-08T23:34:29.365Z,4.40
2019-01-08T23:37:17.810Z,4.05
2019-01-08T23:40:09.165Z,4.12
2019-01-08T23:42:58.216Z,2.77
2019-01-08T23:45:47.420Z,4.58
2019-01-08T23:48:36.198Z,4.22
2019-01-08T23:51:24.628Z,2.70
2019-01-08T23:54:14.362Z,5.45
2019-01-08T23:57:04.920Z,8.30
2019-01-08T23:59:53.708Z,2.17
